sensor_id;sensor_type;location;lat;lon;timestamp;temperature;humidity
56076;DHT22;41951;49.022;12.066;2022-08-19T00:02:24;21.00;99.90
56076;DHT22;41951;49.022;12.066;2022-08-19T00:04:49;21.00;99.90
56076;DHT22;41951;49.022;12.066;2022-08-19T00:07:18;21.00;99.90
56076;DHT22;41951;49.022;12.066;2022-08-19T00:09:44;21.00;99.90
56076;DHT22;41951;49.022;12.066;2022-08-19T00:12:11;21.00;99.90
56076;DHT22;41951;49.022;12.066;2022-08-19T00:14:38;20.90;99.90
56076;DHT22;41951;49.022;12.066;2022-08-19T00:17:05;20.90;99.90
56076;DHT22;41951;49.022;12.066;2022-08-19T00:19:32;20.80;99.90
56076;DHT22;41951;49.022;12.066;2022-08-19T00:21:58;20.70;99.90
56076;DHT22;41951;49.022;12.066;2022-08-19T00:24:24;20.70;99.90
56076;DHT22;41951;49.022;12.066;2022-08-19T00:26:51;20.60;99.90
56076;DHT22;41951;49.022;12.066;2022-08-19T00:29:19;20.60;99.90
56076;DHT22;41951;49.022;12.066;2022-08-19T00:31:45;20.70;99.90
56076;DHT22;41951;49.022;12.066;2022-08-19T00:34:13;20.70;99.90
56076;DHT22;41951;49.022;12.066;2022-08-19T00:36:40;20.60;99.90
56076;DHT22;41951;49.022;12.066;2022-08-19T00:39:06;20.80;99.90
56076;DHT22;41951;49.022;12.066;2022-08-19T00:41:32;20.80;99.90
56076;DHT22;41951;49.022;12.066;2022-08-19T00:46:29;20.90;99.90
56076;DHT22;41951;49.022;12.066;2022-08-19T00:48:55;21.00;99.90
56076;DHT22;41951;49.022;12.066;2022-08-19T00:51:24;21.00;99.90
56076;DHT22;41951;49.022;12.066;2022-08-19T00:53:52;20.90;99.90
56076;DHT22;41951;49.022;12.066;2022-08-19T00:56:18;20.90;99.90
56076;DHT22;41951;49.022;12.066;2022-08-19T00:58:44;20.90;99.90
56076;DHT22;41951;49.022;12.066;2022-08-19T01:01:09;20.90;99.90
56076;DHT22;41951;49.022;12.066;2022-08-19T01:03:35;21.00;99.90
56076;DHT22;41951;49.022;12.066;2022-08-19T01:06:01;20.90;99.90
56076;DHT22;41951;49.022;12.066;2022-08-19T01:08:28;20.90;99.90
56076;DHT22;41951;49.022;12.066;2022-08-19T01:10:58;20.80;99.90
56076;DHT22;41951;49.022;12.066;2022-08-19T01:13:28;20.80;99.90
56076;DHT22;41951;49.022;12.066;2022-08-19T01:16:01;20.90;99.90
56076;DHT22;41951;49.022;12.066;2022-08-19T01:18:29;21.00;99.90
56076;DHT22;41951;49.022;12.066;2022-08-19T01:20:58;21.00;99.90
56076;DHT22;41951;49.022;12.066;2022-08-19T01:23:26;21.00;99.90
56076;DHT22;41951;49.022;12.066;2022-08-19T01:26:10;21.00;99.90
56076;DHT22;41951;49.022;12.066;2022-08-19T01:28:36;21.00;99.90
56076;DHT22;41951;49.022;12.066;2022-08-19T01:31:03;20.90;99.90
56076;DHT22;41951;49.022;12.066;2022-08-19T01:33:29;21.00;99.90
56076;DHT22;41951;49.022;12.066;2022-08-19T01:36:05;21.00;99.90
56076;DHT22;41951;49.022;12.066;2022-08-19T01:38:30;21.00;99.90
56076;DHT22;41951;49.022;12.066;2022-08-19T01:40:59;20.90;99.90
56076;DHT22;41951;49.022;12.066;2022-08-19T01:43:25;20.90;99.90
56076;DHT22;41951;49.022;12.066;2022-08-19T01:45:51;20.90;99.90
56076;DHT22;41951;49.022;12.066;2022-08-19T01:48:18;20.90;99.90
56076;DHT22;41951;49.022;12.066;2022-08-19T01:50:44;20.90;99.90
56076;DHT22;41951;49.022;12.066;2022-08-19T01:53:10;21.00;99.90
56076;DHT22;41951;49.022;12.066;2022-08-19T01:55:40;21.00;99.90
56076;DHT22;41951;49.022;12.066;2022-08-19T01:58:13;21.10;99.90
56076;DHT22;41951;49.022;12.066;2022-08-19T02:00:41;21.00;99.90
56076;DHT22;41951;49.022;12.066;2022-08-19T02:03:07;21.10;99.90
56076;DHT22;41951;49.022;12.066;2022-08-19T02:05:35;21.00;99.90
56076;DHT22;41951;49.022;12.066;2022-08-19T02:08:00;21.00;99.90
56076;DHT22;41951;49.022;12.066;2022-08-19T02:10:26;20.90;99.90
56076;DHT22;41951;49.022;12.066;2022-08-19T02:12:51;20.90;99.90
56076;DHT22;41951;49.022;12.066;2022-08-19T02:15:18;20.80;99.90
56076;DHT22;41951;49.022;12.066;2022-08-19T02:17:45;20.80;99.90
56076;DHT22;41951;49.022;12.066;2022-08-19T02:20:12;20.80;99.90
56076;DHT22;41951;49.022;12.066;2022-08-19T02:22:39;20.70;99.90
56076;DHT22;41951;49.022;12.066;2022-08-19T02:25:07;20.60;99.90
56076;DHT22;41951;49.022;12.066;2022-08-19T02:27:33;20.60;99.90
56076;DHT22;41951;49.022;12.066;2022-08-19T02:29:59;20.60;99.90
56076;DHT22;41951;49.022;12.066;2022-08-19T02:32:25;20.60;99.90
56076;DHT22;41951;49.022;12.066;2022-08-19T02:34:50;20.60;99.90
56076;DHT22;41951;49.022;12.066;2022-08-19T02:37:16;20.60;99.90
56076;DHT22;41951;49.022;12.066;2022-08-19T02:40:05;20.60;99.90
56076;DHT22;41951;49.022;12.066;2022-08-19T02:42:31;20.50;99.90
56076;DHT22;41951;49.022;12.066;2022-08-19T02:44:57;20.50;99.90
56076;DHT22;41951;49.022;12.066;2022-08-19T02:47:23;20.60;99.90
56076;DHT22;41951;49.022;12.066;2022-08-19T02:49:48;20.60;99.90
56076;DHT22;41951;49.022;12.066;2022-08-19T02:52:16;20.60;99.90
56076;DHT22;41951;49.022;12.066;2022-08-19T02:54:42;20.60;99.90
56076;DHT22;41951;49.022;12.066;2022-08-19T02:57:09;20.60;99.90
56076;DHT22;41951;49.022;12.066;2022-08-19T02:59:35;20.60;99.90
56076;DHT22;41951;49.022;12.066;2022-08-19T03:02:00;20.60;99.90
56076;DHT22;41951;49.022;12.066;2022-08-19T03:04:26;20.50;99.90
56076;DHT22;41951;49.022;12.066;2022-08-19T03:06:52;20.40;99.90
56076;DHT22;41951;49.022;12.066;2022-08-19T03:09:19;20.50;99.90
56076;DHT22;41951;49.022;12.066;2022-08-19T03:11:45;20.50;99.90
56076;DHT22;41951;49.022;12.066;2022-08-19T03:14:12;20.60;99.90
56076;DHT22;41951;49.022;12.066;2022-08-19T03:16:47;20.60;99.90
56076;DHT22;41951;49.022;12.066;2022-08-19T03:19:15;20.50;99.90
56076;DHT22;41951;49.022;12.066;2022-08-19T03:21:42;20.40;99.90
56076;DHT22;41951;49.022;12.066;2022-08-19T03:24:10;20.40;99.90
56076;DHT22;41951;49.022;12.066;2022-08-19T03:26:44;20.30;99.90
56076;DHT22;41951;49.022;12.066;2022-08-19T03:29:10;20.30;99.90
56076;DHT22;41951;49.022;12.066;2022-08-19T03:31:39;20.40;99.90
56076;DHT22;41951;49.022;12.066;2022-08-19T03:34:05;20.40;99.90
56076;DHT22;41951;49.022;12.066;2022-08-19T03:36:31;20.40;99.90
56076;DHT22;41951;49.022;12.066;2022-08-19T03:38:59;20.40;99.90
56076;DHT22;41951;49.022;12.066;2022-08-19T03:41:27;20.50;99.90
56076;DHT22;41951;49.022;12.066;2022-08-19T03:43:54;20.60;99.90
56076;DHT22;41951;49.022;12.066;2022-08-19T03:46:23;20.60;99.90
56076;DHT22;41951;49.022;12.066;2022-08-19T03:48:51;20.70;99.90
56076;DHT22;41951;49.022;12.066;2022-08-19T03:51:25;20.70;99.90
56076;DHT22;41951;49.022;12.066;2022-08-19T03:53:53;20.70;99.90
56076;DHT22;41951;49.022;12.066;2022-08-19T03:56:19;20.80;99.90
56076;DHT22;41951;49.022;12.066;2022-08-19T03:58:45;20.70;99.90
56076;DHT22;41951;49.022;12.066;2022-08-19T04:01:17;20.60;99.90
56076;DHT22;41951;49.022;12.066;2022-08-19T04:03:43;20.70;99.90
56076;DHT22;41951;49.022;12.066;2022-08-19T04:06:18;20.50;99.90
56076;DHT22;41951;49.022;12.066;2022-08-19T04:08:46;20.60;99.90
56076;DHT22;41951;49.022;12.066;2022-08-19T04:11:15;20.60;99.90
56076;DHT22;41951;49.022;12.066;2022-08-19T04:13:41;20.60;99.90
56076;DHT22;41951;49.022;12.066;2022-08-19T04:16:09;20.60;99.90
56076;DHT22;41951;49.022;12.066;2022-08-19T04:18:36;20.60;99.90
56076;DHT22;41951;49.022;12.066;2022-08-19T04:21:02;20.60;99.90
56076;DHT22;41951;49.022;12.066;2022-08-19T04:23:28;20.60;99.90
56076;DHT22;41951;49.022;12.066;2022-08-19T04:25:54;20.70;99.90
56076;DHT22;41951;49.022;12.066;2022-08-19T04:28:20;20.80;99.90
56076;DHT22;41951;49.022;12.066;2022-08-19T04:30:49;20.90;99.90
56076;DHT22;41951;49.022;12.066;2022-08-19T04:33:17;20.90;99.90
56076;DHT22;41951;49.022;12.066;2022-08-19T04:35:46;20.90;99.90
56076;DHT22;41951;49.022;12.066;2022-08-19T04:38:14;20.90;99.90
56076;DHT22;41951;49.022;12.066;2022-08-19T04:40:41;20.90;99.90
56076;DHT22;41951;49.022;12.066;2022-08-19T04:43:26;20.90;99.90
56076;DHT22;41951;49.022;12.066;2022-08-19T04:45:51;21.00;99.90
56076;DHT22;41951;49.022;12.066;2022-08-19T04:48:17;21.00;99.90
56076;DHT22;41951;49.022;12.066;2022-08-19T04:50:47;21.00;99.90
56076;DHT22;41951;49.022;12.066;2022-08-19T04:53:13;21.00;99.90
56076;DHT22;41951;49.022;12.066;2022-08-19T04:55:41;21.00;99.90
56076;DHT22;41951;49.022;12.066;2022-08-19T04:58:06;21.00;99.90
56076;DHT22;41951;49.022;12.066;2022-08-19T05:00:32;21.00;99.90
56076;DHT22;41951;49.022;12.066;2022-08-19T05:02:58;20.90;99.90
56076;DHT22;41951;49.022;12.066;2022-08-19T05:05:23;20.90;99.90
56076;DHT22;41951;49.022;12.066;2022-08-19T05:07:49;20.90;99.90
56076;DHT22;41951;49.022;12.066;2022-08-19T05:10:14;20.90;99.90
56076;DHT22;41951;49.022;12.066;2022-08-19T05:12:40;20.90;99.90
56076;DHT22;41951;49.022;12.066;2022-08-19T05:15:06;20.80;99.90
56076;DHT22;41951;49.022;12.066;2022-08-19T05:17:34;20.90;99.90
56076;DHT22;41951;49.022;12.066;2022-08-19T05:19:59;21.00;99.90
56076;DHT22;41951;49.022;12.066;2022-08-19T05:22:45;21.00;99.90
56076;DHT22;41951;49.022;12.066;2022-08-19T05:25:14;21.00;99.90
56076;DHT22;41951;49.022;12.066;2022-08-19T05:27:43;21.10;99.90
56076;DHT22;41951;49.022;12.066;2022-08-19T05:30:10;21.10;99.90
56076;DHT22;41951;49.022;12.066;2022-08-19T05:32:36;21.10;99.90
56076;DHT22;41951;49.022;12.066;2022-08-19T05:35:03;21.10;99.90
56076;DHT22;41951;49.022;12.066;2022-08-19T05:37:29;21.10;99.90
56076;DHT22;41951;49.022;12.066;2022-08-19T05:39:55;21.10;99.90
56076;DHT22;41951;49.022;12.066;2022-08-19T05:42:21;21.10;99.90
56076;DHT22;41951;49.022;12.066;2022-08-19T05:44:48;21.10;99.90
56076;DHT22;41951;49.022;12.066;2022-08-19T05:47:16;21.10;99.90
56076;DHT22;41951;49.022;12.066;2022-08-19T05:49:42;21.10;99.90
56076;DHT22;41951;49.022;12.066;2022-08-19T05:52:11;21.20;99.90
56076;DHT22;41951;49.022;12.066;2022-08-19T05:54:39;21.20;99.90
56076;DHT22;41951;49.022;12.066;2022-08-19T05:57:07;21.20;99.90
56076;DHT22;41951;49.022;12.066;2022-08-19T05:59:33;21.20;99.90
56076;DHT22;41951;49.022;12.066;2022-08-19T06:02:01;21.20;99.90
56076;DHT22;41951;49.022;12.066;2022-08-19T06:04:26;21.30;99.90
56076;DHT22;41951;49.022;12.066;2022-08-19T06:06:53;21.30;99.90
56076;DHT22;41951;49.022;12.066;2022-08-19T06:09:20;21.30;99.90
56076;DHT22;41951;49.022;12.066;2022-08-19T06:11:51;21.20;99.90
56076;DHT22;41951;49.022;12.066;2022-08-19T06:14:29;21.30;99.90
56076;DHT22;41951;49.022;12.066;2022-08-19T06:16:56;21.30;99.90
56076;DHT22;41951;49.022;12.066;2022-08-19T06:19:22;21.40;99.90
56076;DHT22;41951;49.022;12.066;2022-08-19T06:21:50;21.30;99.90
56076;DHT22;41951;49.022;12.066;2022-08-19T06:24:20;21.30;99.90
56076;DHT22;41951;49.022;12.066;2022-08-19T06:26:49;21.30;99.90
56076;DHT22;41951;49.022;12.066;2022-08-19T06:29:18;21.30;99.90
56076;DHT22;41951;49.022;12.066;2022-08-19T06:31:47;21.30;99.90
56076;DHT22;41951;49.022;12.066;2022-08-19T06:34:15;21.30;99.90
56076;DHT22;41951;49.022;12.066;2022-08-19T06:36:44;21.20;99.90
56076;DHT22;41951;49.022;12.066;2022-08-19T06:39:13;21.30;99.90
56076;DHT22;41951;49.022;12.066;2022-08-19T06:41:44;21.30;99.90
56076;DHT22;41951;49.022;12.066;2022-08-19T06:44:11;21.20;99.90
56076;DHT22;41951;49.022;12.066;2022-08-19T06:46:38;21.20;99.90
56076;DHT22;41951;49.022;12.066;2022-08-19T06:49:04;21.20;99.90
56076;DHT22;41951;49.022;12.066;2022-08-19T06:51:29;21.30;99.90
56076;DHT22;41951;49.022;12.066;2022-08-19T06:53:57;21.20;99.90
56076;DHT22;41951;49.022;12.066;2022-08-19T06:56:26;21.10;99.90
56076;DHT22;41951;49.022;12.066;2022-08-19T06:58:59;21.00;99.90
56076;DHT22;41951;49.022;12.066;2022-08-19T07:01:25;21.10;99.90
56076;DHT22;41951;49.022;12.066;2022-08-19T07:03:51;21.10;99.90
56076;DHT22;41951;49.022;12.066;2022-08-19T07:06:18;21.00;99.90
56076;DHT22;41951;49.022;12.066;2022-08-19T07:08:46;21.00;99.90
56076;DHT22;41951;49.022;12.066;2022-08-19T07:11:14;21.10;99.90
56076;DHT22;41951;49.022;12.066;2022-08-19T07:13:41;21.00;99.90
56076;DHT22;41951;49.022;12.066;2022-08-19T07:16:13;21.00;99.90
56076;DHT22;41951;49.022;12.066;2022-08-19T07:18:39;20.90;99.90
56076;DHT22;41951;49.022;12.066;2022-08-19T07:21:07;21.00;99.90
56076;DHT22;41951;49.022;12.066;2022-08-19T07:23:33;21.00;99.90
56076;DHT22;41951;49.022;12.066;2022-08-19T07:26:09;21.00;99.90
56076;DHT22;41951;49.022;12.066;2022-08-19T07:28:35;20.90;99.90
56076;DHT22;41951;49.022;12.066;2022-08-19T07:31:06;20.90;99.90
56076;DHT22;41951;49.022;12.066;2022-08-19T07:33:32;20.90;99.90
56076;DHT22;41951;49.022;12.066;2022-08-19T07:35:58;20.90;99.90
56076;DHT22;41951;49.022;12.066;2022-08-19T07:38:24;21.00;99.90
56076;DHT22;41951;49.022;12.066;2022-08-19T07:40:50;21.00;99.90
56076;DHT22;41951;49.022;12.066;2022-08-19T07:43:16;21.00;99.90
56076;DHT22;41951;49.022;12.066;2022-08-19T07:45:46;21.10;99.90
56076;DHT22;41951;49.022;12.066;2022-08-19T07:48:12;21.10;99.90
56076;DHT22;41951;49.022;12.066;2022-08-19T07:50:38;21.10;99.90
56076;DHT22;41951;49.022;12.066;2022-08-19T07:53:03;21.10;99.90
56076;DHT22;41951;49.022;12.066;2022-08-19T07:55:29;21.20;99.90
56076;DHT22;41951;49.022;12.066;2022-08-19T07:57:55;21.20;99.90
56076;DHT22;41951;49.022;12.066;2022-08-19T08:00:20;21.20;99.90
56076;DHT22;41951;49.022;12.066;2022-08-19T08:02:46;21.20;99.90
56076;DHT22;41951;49.022;12.066;2022-08-19T08:05:12;21.20;99.90
56076;DHT22;41951;49.022;12.066;2022-08-19T08:08:07;21.30;99.90
56076;DHT22;41951;49.022;12.066;2022-08-19T08:10:51;21.30;99.90
56076;DHT22;41951;49.022;12.066;2022-08-19T08:13:16;21.40;99.90
56076;DHT22;41951;49.022;12.066;2022-08-19T08:15:42;21.50;99.90
56076;DHT22;41951;49.022;12.066;2022-08-19T08:18:11;21.50;99.90
56076;DHT22;41951;49.022;12.066;2022-08-19T08:20:37;21.60;99.90
56076;DHT22;41951;49.022;12.066;2022-08-19T08:23:03;21.70;99.90
56076;DHT22;41951;49.022;12.066;2022-08-19T08:25:47;21.80;99.90
56076;DHT22;41951;49.022;12.066;2022-08-19T08:28:14;21.80;99.90
56076;DHT22;41951;49.022;12.066;2022-08-19T08:30:40;21.90;99.90
56076;DHT22;41951;49.022;12.066;2022-08-19T08:33:07;22.00;99.90
56076;DHT22;41951;49.022;12.066;2022-08-19T08:35:33;22.10;99.90
56076;DHT22;41951;49.022;12.066;2022-08-19T08:37:59;22.10;99.90
56076;DHT22;41951;49.022;12.066;2022-08-19T08:40:48;22.20;99.90
56076;DHT22;41951;49.022;12.066;2022-08-19T08:43:26;22.30;99.90
56076;DHT22;41951;49.022;12.066;2022-08-19T08:48:56;22.60;99.90
56076;DHT22;41951;49.022;12.066;2022-08-19T08:51:37;22.60;99.90
56076;DHT22;41951;49.022;12.066;2022-08-19T08:54:06;22.70;99.90
56076;DHT22;41951;49.022;12.066;2022-08-19T08:56:33;22.70;99.90
56076;DHT22;41951;49.022;12.066;2022-08-19T08:59:06;22.80;99.90
56076;DHT22;41951;49.022;12.066;2022-08-19T09:01:34;22.90;99.90
56076;DHT22;41951;49.022;12.066;2022-08-19T09:03:59;22.90;99.90
56076;DHT22;41951;49.022;12.066;2022-08-19T09:09:16;23.10;99.90
56076;DHT22;41951;49.022;12.066;2022-08-19T09:12:14;23.10;99.90
56076;DHT22;41951;49.022;12.066;2022-08-19T09:17:25;23.00;99.90
56076;DHT22;41951;49.022;12.066;2022-08-19T09:20:21;23.00;99.90
56076;DHT22;41951;49.022;12.066;2022-08-19T09:22:48;22.90;99.90
56076;DHT22;41951;49.022;12.066;2022-08-19T09:25:17;22.80;99.90
56076;DHT22;41951;49.022;12.066;2022-08-19T09:27:44;22.80;99.90
56076;DHT22;41951;49.022;12.066;2022-08-19T09:30:21;22.80;99.90
56076;DHT22;41951;49.022;12.066;2022-08-19T09:32:48;22.80;99.90
56076;DHT22;41951;49.022;12.066;2022-08-19T09:35:14;22.80;99.90
56076;DHT22;41951;49.022;12.066;2022-08-19T09:37:41;22.80;99.90
56076;DHT22;41951;49.022;12.066;2022-08-19T09:40:08;22.70;99.90
56076;DHT22;41951;49.022;12.066;2022-08-19T09:42:34;22.70;99.90
56076;DHT22;41951;49.022;12.066;2022-08-19T09:45:00;22.70;99.90
56076;DHT22;41951;49.022;12.066;2022-08-19T09:47:25;22.70;99.90
56076;DHT22;41951;49.022;12.066;2022-08-19T09:49:51;22.60;99.90
56076;DHT22;41951;49.022;12.066;2022-08-19T09:52:17;22.70;99.90
56076;DHT22;41951;49.022;12.066;2022-08-19T09:54:43;22.70;99.90
56076;DHT22;41951;49.022;12.066;2022-08-19T09:57:09;22.60;99.90
56076;DHT22;41951;49.022;12.066;2022-08-19T09:59:34;22.60;99.90
56076;DHT22;41951;49.022;12.066;2022-08-19T10:02:00;22.60;99.90
56076;DHT22;41951;49.022;12.066;2022-08-19T10:04:26;22.50;99.90
56076;DHT22;41951;49.022;12.066;2022-08-19T10:07:11;22.50;99.90
56076;DHT22;41951;49.022;12.066;2022-08-19T10:09:37;22.60;99.90
56076;DHT22;41951;49.022;12.066;2022-08-19T10:12:04;22.50;99.90
56076;DHT22;41951;49.022;12.066;2022-08-19T10:14:31;22.50;99.90
56076;DHT22;41951;49.022;12.066;2022-08-19T10:16:57;22.50;99.90
56076;DHT22;41951;49.022;12.066;2022-08-19T10:19:22;22.40;99.90
56076;DHT22;41951;49.022;12.066;2022-08-19T10:21:48;22.40;99.90
56076;DHT22;41951;49.022;12.066;2022-08-19T10:24:14;22.40;99.90
56076;DHT22;41951;49.022;12.066;2022-08-19T10:26:40;22.40;99.90
56076;DHT22;41951;49.022;12.066;2022-08-19T10:29:12;22.40;99.90
56076;DHT22;41951;49.022;12.066;2022-08-19T10:31:41;22.50;99.90
56076;DHT22;41951;49.022;12.066;2022-08-19T10:34:07;22.50;99.90
56076;DHT22;41951;49.022;12.066;2022-08-19T10:36:35;22.70;99.90
56076;DHT22;41951;49.022;12.066;2022-08-19T10:39:05;22.80;99.90
56076;DHT22;41951;49.022;12.066;2022-08-19T10:41:33;22.90;99.90
56076;DHT22;41951;49.022;12.066;2022-08-19T10:44:03;23.00;99.90
56076;DHT22;41951;49.022;12.066;2022-08-19T10:46:38;23.00;99.90
56076;DHT22;41951;49.022;12.066;2022-08-19T10:49:07;23.00;99.90
56076;DHT22;41951;49.022;12.066;2022-08-19T10:51:33;22.90;99.90
56076;DHT22;41951;49.022;12.066;2022-08-19T10:54:17;22.90;99.90
56076;DHT22;41951;49.022;12.066;2022-08-19T10:56:43;22.90;99.90
56076;DHT22;41951;49.022;12.066;2022-08-19T10:59:27;23.00;99.90
56076;DHT22;41951;49.022;12.066;2022-08-19T11:02:01;22.90;99.90
56076;DHT22;41951;49.022;12.066;2022-08-19T11:04:27;22.90;99.90
56076;DHT22;41951;49.022;12.066;2022-08-19T11:06:53;22.90;99.90
56076;DHT22;41951;49.022;12.066;2022-08-19T11:09:22;23.00;99.90
56076;DHT22;41951;49.022;12.066;2022-08-19T11:11:51;23.00;99.90
56076;DHT22;41951;49.022;12.066;2022-08-19T11:14:18;23.00;99.90
56076;DHT22;41951;49.022;12.066;2022-08-19T11:16:47;23.10;99.90
56076;DHT22;41951;49.022;12.066;2022-08-19T11:19:14;23.10;99.90
56076;DHT22;41951;49.022;12.066;2022-08-19T11:21:43;23.10;99.90
56076;DHT22;41951;49.022;12.066;2022-08-19T11:24:12;23.10;99.90
56076;DHT22;41951;49.022;12.066;2022-08-19T11:26:39;23.10;99.90
56076;DHT22;41951;49.022;12.066;2022-08-19T11:29:06;23.10;99.90
56076;DHT22;41951;49.022;12.066;2022-08-19T11:31:37;23.00;99.90
56076;DHT22;41951;49.022;12.066;2022-08-19T11:34:06;23.00;99.90
56076;DHT22;41951;49.022;12.066;2022-08-19T11:36:33;22.90;99.90
56076;DHT22;41951;49.022;12.066;2022-08-19T11:39:00;22.90;99.90
56076;DHT22;41951;49.022;12.066;2022-08-19T11:41:26;22.80;99.90
56076;DHT22;41951;49.022;12.066;2022-08-19T11:43:53;22.80;99.90
56076;DHT22;41951;49.022;12.066;2022-08-19T11:46:22;22.70;99.90
56076;DHT22;41951;49.022;12.066;2022-08-19T11:48:49;22.70;99.90
56076;DHT22;41951;49.022;12.066;2022-08-19T11:51:18;22.60;99.90
56076;DHT22;41951;49.022;12.066;2022-08-19T11:53:44;22.50;99.90
56076;DHT22;41951;49.022;12.066;2022-08-19T11:56:11;22.40;99.90
56076;DHT22;41951;49.022;12.066;2022-08-19T11:58:37;22.40;99.90
56076;DHT22;41951;49.022;12.066;2022-08-19T12:01:10;22.30;99.90
56076;DHT22;41951;49.022;12.066;2022-08-19T12:03:37;22.20;99.90
56076;DHT22;41951;49.022;12.066;2022-08-19T12:06:08;22.20;99.90
56076;DHT22;41951;49.022;12.066;2022-08-19T12:08:33;22.10;99.90
56076;DHT22;41951;49.022;12.066;2022-08-19T12:10:59;22.00;99.90
56076;DHT22;41951;49.022;12.066;2022-08-19T12:13:29;21.90;99.90
56076;DHT22;41951;49.022;12.066;2022-08-19T12:15:55;21.80;99.90
56076;DHT22;41951;49.022;12.066;2022-08-19T12:18:21;21.70;99.90
56076;DHT22;41951;49.022;12.066;2022-08-19T12:20:46;21.70;99.90
56076;DHT22;41951;49.022;12.066;2022-08-19T12:23:12;21.70;99.90
56076;DHT22;41951;49.022;12.066;2022-08-19T12:25:45;21.60;99.90
56076;DHT22;41951;49.022;12.066;2022-08-19T12:28:19;21.60;99.90
56076;DHT22;41951;49.022;12.066;2022-08-19T12:30:46;21.50;99.90
56076;DHT22;41951;49.022;12.066;2022-08-19T12:33:12;21.60;99.90
56076;DHT22;41951;49.022;12.066;2022-08-19T12:35:43;21.60;99.90
56076;DHT22;41951;49.022;12.066;2022-08-19T12:38:10;21.50;99.90
56076;DHT22;41951;49.022;12.066;2022-08-19T12:40:36;21.70;99.90
56076;DHT22;41951;49.022;12.066;2022-08-19T12:43:02;21.70;99.90
56076;DHT22;41951;49.022;12.066;2022-08-19T12:45:27;21.70;99.90
56076;DHT22;41951;49.022;12.066;2022-08-19T12:47:54;21.70;99.90
56076;DHT22;41951;49.022;12.066;2022-08-19T12:50:19;21.70;99.90
56076;DHT22;41951;49.022;12.066;2022-08-19T12:52:47;21.80;99.90
56076;DHT22;41951;49.022;12.066;2022-08-19T12:55:13;21.90;99.90
56076;DHT22;41951;49.022;12.066;2022-08-19T12:57:39;21.80;99.90
56076;DHT22;41951;49.022;12.066;2022-08-19T13:00:08;21.70;99.90
56076;DHT22;41951;49.022;12.066;2022-08-19T13:02:39;21.60;99.90
56076;DHT22;41951;49.022;12.066;2022-08-19T13:05:08;21.60;99.90
56076;DHT22;41951;49.022;12.066;2022-08-19T13:07:36;21.70;99.90
56076;DHT22;41951;49.022;12.066;2022-08-19T13:10:02;21.80;99.90
56076;DHT22;41951;49.022;12.066;2022-08-19T13:12:28;21.90;99.90
56076;DHT22;41951;49.022;12.066;2022-08-19T13:14:55;21.80;99.90
56076;DHT22;41951;49.022;12.066;2022-08-19T13:17:21;21.80;99.90
56076;DHT22;41951;49.022;12.066;2022-08-19T13:19:47;21.80;99.90
56076;DHT22;41951;49.022;12.066;2022-08-19T13:22:13;21.70;99.90
56076;DHT22;41951;49.022;12.066;2022-08-19T13:24:39;21.70;99.90
56076;DHT22;41951;49.022;12.066;2022-08-19T13:27:05;21.70;99.90
56076;DHT22;41951;49.022;12.066;2022-08-19T13:29:32;21.80;99.90
56076;DHT22;41951;49.022;12.066;2022-08-19T13:32:16;21.90;99.90
56076;DHT22;41951;49.022;12.066;2022-08-19T13:35:01;21.80;99.90
56076;DHT22;41951;49.022;12.066;2022-08-19T13:37:27;21.80;99.90
56076;DHT22;41951;49.022;12.066;2022-08-19T13:40:14;21.80;99.90
56076;DHT22;41951;49.022;12.066;2022-08-19T13:42:43;21.70;99.90
56076;DHT22;41951;49.022;12.066;2022-08-19T13:45:11;21.70;99.90
56076;DHT22;41951;49.022;12.066;2022-08-19T13:47:38;21.70;99.90
56076;DHT22;41951;49.022;12.066;2022-08-19T13:50:12;21.90;99.90
56076;DHT22;41951;49.022;12.066;2022-08-19T13:52:38;22.10;99.90
56076;DHT22;41951;49.022;12.066;2022-08-19T13:55:04;22.60;99.90
56076;DHT22;41951;49.022;12.066;2022-08-19T13:57:30;22.90;99.90
56076;DHT22;41951;49.022;12.066;2022-08-19T13:59:57;23.10;99.90
56076;DHT22;41951;49.022;12.066;2022-08-19T14:02:24;23.20;99.90
56076;DHT22;41951;49.022;12.066;2022-08-19T14:04:49;23.20;99.90
56076;DHT22;41951;49.022;12.066;2022-08-19T14:07:15;23.30;99.90
56076;DHT22;41951;49.022;12.066;2022-08-19T14:09:41;23.30;99.90
56076;DHT22;41951;49.022;12.066;2022-08-19T14:12:07;23.40;99.90
56076;DHT22;41951;49.022;12.066;2022-08-19T14:14:37;23.50;99.90
56076;DHT22;41951;49.022;12.066;2022-08-19T14:17:06;23.60;99.90
56076;DHT22;41951;49.022;12.066;2022-08-19T14:19:32;23.50;99.90
56076;DHT22;41951;49.022;12.066;2022-08-19T14:21:58;23.40;99.90
56076;DHT22;41951;49.022;12.066;2022-08-19T14:24:24;23.50;99.90
56076;DHT22;41951;49.022;12.066;2022-08-19T14:26:49;23.60;99.90
56076;DHT22;41951;49.022;12.066;2022-08-19T14:29:15;24.00;99.90
56076;DHT22;41951;49.022;12.066;2022-08-19T14:31:41;24.40;99.90
56076;DHT22;41951;49.022;12.066;2022-08-19T14:34:08;24.40;99.90
56076;DHT22;41951;49.022;12.066;2022-08-19T14:36:35;24.40;99.90
56076;DHT22;41951;49.022;12.066;2022-08-19T14:39:01;24.30;99.90
56076;DHT22;41951;49.022;12.066;2022-08-19T14:41:27;24.20;99.90
56076;DHT22;41951;49.022;12.066;2022-08-19T14:43:53;23.90;99.90
56076;DHT22;41951;49.022;12.066;2022-08-19T14:46:23;23.70;99.90
56076;DHT22;41951;49.022;12.066;2022-08-19T14:48:49;23.50;99.90
56076;DHT22;41951;49.022;12.066;2022-08-19T14:51:15;23.40;99.90
56076;DHT22;41951;49.022;12.066;2022-08-19T14:53:41;23.40;99.90
56076;DHT22;41951;49.022;12.066;2022-08-19T14:56:10;23.30;99.90
56076;DHT22;41951;49.022;12.066;2022-08-19T14:58:36;23.30;99.90
56076;DHT22;41951;49.022;12.066;2022-08-19T15:01:02;23.30;99.90
56076;DHT22;41951;49.022;12.066;2022-08-19T15:03:29;23.30;99.90
56076;DHT22;41951;49.022;12.066;2022-08-19T15:05:55;23.20;99.90
56076;DHT22;41951;49.022;12.066;2022-08-19T15:08:22;23.20;99.90
56076;DHT22;41951;49.022;12.066;2022-08-19T15:10:50;23.10;99.90
56076;DHT22;41951;49.022;12.066;2022-08-19T15:13:16;23.10;99.90
56076;DHT22;41951;49.022;12.066;2022-08-19T15:15:42;23.00;99.90
56076;DHT22;41951;49.022;12.066;2022-08-19T15:18:07;23.10;99.90
56076;DHT22;41951;49.022;12.066;2022-08-19T15:20:33;23.00;99.90
56076;DHT22;41951;49.022;12.066;2022-08-19T15:22:59;22.90;99.90
56076;DHT22;41951;49.022;12.066;2022-08-19T15:25:26;22.90;99.90
56076;DHT22;41951;49.022;12.066;2022-08-19T15:27:55;23.00;99.90
56076;DHT22;41951;49.022;12.066;2022-08-19T15:30:26;23.00;99.90
56076;DHT22;41951;49.022;12.066;2022-08-19T15:32:52;23.00;99.90